Time;durP1;ratioP1;P1;durP2;ratioP2;P2;SDS_P1;SDS_P2;PMS_P1;PMS_P2;Temp;Humidity;BMP_temperature;BMP_pressure;BME280_temperature;BME280_humidity;BME280_pressure;Samples;Min_cycle;Max_cycle;Signal;HPM_P1;HPM_P2
2022/12/30 00:01:17;;;;;;;19.42;10.13;;;;;;;8.00;77.96;100146.05;1726687;82;27483;-76
2022/12/30 00:03:43;;;;;;;19.40;9.93;;;;;;;7.96;77.93;100147.39;1716574;82;25809;-76
2022/12/30 00:06:15;;;;;;;18.07;10.03;;;;;;;7.91;78.10;100145.30;1708186;83;25773;-76
2022/12/30 00:08:48;;;;;;;17.45;9.63;;;;;;;7.89;78.11;100145.95;1706953;83;25713;-75
2022/12/30 00:11:31;;;;;;;17.70;10.18;;;;;;;7.86;78.09;100153.00;1719327;82;25866;-76
2022/12/30 00:34:03;;;;;;;18.63;9.43;;;;;;;7.61;78.44;100157.69;1709796;81;25969;-76
2022/12/30 00:36:29;;;;;;;;;;;;;;;7.59;78.52;100156.23;1741196;81;25831;-77
2022/12/30 00:38:56;;;;;;;17.15;10.25;;;;;;;7.58;78.58;100159.89;1687066;83;26479;-77
2022/12/30 00:44:08;;;;;;;16.67;9.55;;;;;;;7.54;78.58;100157.26;1695757;83;26205;-76
2022/12/30 00:46:36;;;;;;;19.98;10.13;;;;;;;7.51;78.59;100158.93;1709974;83;25816;-77
2022/12/30 00:57:17;;;;;;;20.88;10.43;;;;;;;7.46;78.66;100170.65;1741575;81;26317;-77
2022/12/30 00:59:43;;;;;;;21.17;11.22;;;;;;;7.44;78.57;100169.47;1735048;80;25548;-76
2022/12/30 01:02:09;;;;;;;15.98;10.10;;;;;;;7.41;78.58;100171.17;1714768;83;25775;-77
2022/12/30 01:04:36;;;;;;;16.30;9.80;;;;;;;7.39;78.69;100175.02;1710485;83;26435;-77
2022/12/30 01:07:02;;;;;;;17.25;10.50;;;;;;;7.37;78.78;100171.20;1715386;83;28293;-77
2022/12/30 01:09:28;;;;;;;15.72;9.88;;;;;;;7.36;78.76;100176.19;1742766;80;25831;-77
2022/12/30 01:12:09;;;;;;;24.52;10.20;;;;;;;7.35;78.76;100172.37;1744609;81;25849;-77
2022/12/30 01:14:49;;;;;;;16.23;10.30;;;;;;;7.33;78.79;100168.57;1713536;82;25808;-76
2022/12/30 01:17:22;;;;;;;17.07;10.13;;;;;;;7.32;78.77;100174.89;1729067;82;25798;-76
2022/12/30 01:19:49;;;;;;;18.55;10.63;;;;;;;7.31;78.76;100177.24;1724068;82;28441;-76
2022/12/30 01:22:16;;;;;;;20.82;10.82;;;;;;;7.27;78.75;100175.91;1739003;81;26025;-76
2022/12/30 01:24:42;;;;;;;16.05;9.28;;;;;;;7.28;78.98;100173.59;1737588;81;26409;-76
2022/12/30 01:27:09;;;;;;;17.20;9.88;;;;;;;7.28;79.03;100177.58;1705129;83;25849;-76
2022/12/30 01:29:39;;;;;;;18.85;10.75;;;;;;;7.26;79.11;100168.94;1710046;82;25614;-76
2022/12/30 01:32:16;;;;;;;17.62;10.88;;;;;;;7.25;79.23;100167.79;1709917;83;27594;-76
2022/12/30 01:34:43;;;;;;;17.45;10.23;;;;;;;7.21;79.22;100163.30;1739650;81;25550;-76
2022/12/30 01:37:11;;;;;;;16.57;10.20;;;;;;;7.19;79.37;100171.97;1711492;83;26428;-76
2022/12/30 01:39:37;;;;;;;16.75;10.08;;;;;;;7.17;79.47;100173.14;1741065;81;25755;-75
2022/12/30 01:42:15;;;;;;;20.60;10.75;;;;;;;7.16;79.68;100168.34;1756240;80;25943;-77
2022/12/30 01:45:03;;;;;;;17.95;10.70;;;;;;;7.16;79.69;100167.50;1699568;83;27535;-76
2022/12/30 01:47:56;;;;;;;20.27;10.63;;;;;;;7.14;79.70;100176.17;1731716;80;25323;-76
2022/12/30 01:50:40;;;;;;;18.95;11.57;;;;;;;7.12;79.90;100182.98;1733089;80;26546;-76
2022/12/30 01:53:23;;;;;;;15.15;10.50;;;;;;;7.13;79.92;100190.48;1709274;83;25794;-77
2022/12/30 01:56:04;;;;;;;16.10;10.70;;;;;;;7.09;79.95;100190.02;1715752;83;25892;-77
2022/12/30 01:58:38;;;;;;;16.67;10.68;;;;;;;7.07;79.99;100184.03;1711035;82;27480;-77
2022/12/30 02:01:06;;;;;;;20.30;10.45;;;;;;;7.07;79.99;100183.19;1704167;83;26436;-77
2022/12/30 02:03:37;;;;;;;17.40;10.23;;;;;;;7.05;80.06;100186.53;1738272;81;26398;-77
2022/12/30 02:06:05;;;;;;;16.75;11.43;;;;;;;7.03;80.07;100190.71;1762925;80;26453;-77
2022/12/30 02:08:34;;;;;;;18.07;10.30;;;;;;;7.03;80.11;100193.87;1732933;82;25794;-77
2022/12/30 02:11:04;;;;;;;17.85;10.82;;;;;;;7.00;80.17;100191.05;1730708;82;27422;-76
2022/12/30 02:13:31;;;;;;;18.77;11.65;;;;;;;7.00;80.35;100193.21;1725457;82;25802;-77
2022/12/30 02:16:30;;;;;;;16.65;10.58;;;;;;;6.97;80.44;100194.88;1744933;81;26267;-77
2022/12/30 02:19:16;;;;;;;19.25;10.70;;;;;;;6.96;80.61;100191.06;1728521;82;26413;-77
2022/12/30 02:21:57;;;;;;;17.40;10.65;;;;;;;6.95;80.78;100187.56;1746714;81;25948;-77
2022/12/30 02:25:05;;;;;;;18.25;11.12;;;;;;;6.96;80.79;100198.56;1730569;81;27626;-78
2022/12/30 02:27:46;;;;;;;19.70;10.30;;;;;;;6.95;80.79;100186.23;1701964;83;25876;-77
2022/12/30 02:30:47;;;;;;;14.47;10.05;;;;;;;6.96;80.85;100181.75;1703632;83;25860;-77
2022/12/30 02:33:28;;;;;;;15.55;9.15;;;;;;;6.95;80.82;100192.89;1666900;83;26485;-77
2022/12/30 02:36:47;;;;;;;17.17;10.72;;;;;;;6.92;80.84;100191.09;1718186;82;25631;-77
2022/12/30 02:39:31;;;;;;;19.95;9.90;;;;;;;6.92;80.86;100199.08;1730721;81;29347;-77
2022/12/30 02:45:10;;;;;;;17.65;10.63;;;;;;;6.86;81.05;100195.25;1720662;83;26383;-77
2022/12/30 02:48:01;;;;;;;19.48;11.28;;;;;;;6.86;81.06;100205.91;1714066;82;26585;-77
2022/12/30 02:53:22;;;;;;;16.13;10.93;;;;;;;6.82;81.05;100206.45;1700047;83;27573;-76
2022/12/30 02:55:50;;;;;;;;;;;;;;;6.77;81.03;100198.97;1714093;83;26324;-77
2022/12/30 02:58:16;;;;;;;17.27;10.68;;;;;;;6.73;81.06;100200.33;1720981;83;25812;-77
2022/12/30 03:04:28;;;;;;;15.32;10.53;;;;;;;6.70;81.22;100201.14;1713980;82;25732;-77
2022/12/30 03:07:20;;;;;;;19.40;11.10;;;;;;;6.65;81.21;100206.17;1721027;82;27455;-77
2022/12/30 03:13:00;;;;;;;17.75;12.33;;;;;;;6.57;81.46;100203.02;1714577;83;26415;-77
2022/12/30 03:15:38;;;;;;;18.60;11.63;;;;;;;6.54;81.56;100226.48;1711526;82;25919;-77
2022/12/30 03:18:05;;;;;;;19.60;11.45;;;;;;;6.51;81.58;100221.00;1711166;83;26022;-76
2022/12/30 03:20:33;;;;;;;18.57;11.80;;;;;;;6.50;81.65;100221.18;1711197;83;27479;-77
2022/12/30 03:28:35;;;;;;;21.60;12.60;;;;;;;6.44;81.88;100229.81;1706090;83;26552;-77
2022/12/30 03:31:05;;;;;;;18.40;11.90;;;;;;;6.44;81.97;100238.62;1713664;83;25829;-76
2022/12/30 03:33:32;;;;;;;18.98;12.53;;;;;;;6.44;81.94;100233.80;1699547;83;27482;-77
2022/12/30 03:36:10;;;;;;;19.85;11.97;;;;;;;6.43;81.96;100237.48;1698679;83;26102;-77
2022/12/30 03:38:42;;;;;;;20.25;12.95;;;;;;;6.41;82.02;100221.70;1705207;83;26417;-77
2022/12/30 03:41:09;;;;;;;20.52;12.28;;;;;;;6.40;82.15;100222.68;1698590;82;25851;-76
2022/12/30 03:43:36;;;;;;;19.42;12.07;;;;;;;6.39;82.10;100213.05;1703221;82;25833;-77
2022/12/30 03:46:03;;;;;;;19.30;13.08;;;;;;;6.39;82.14;100225.52;1709628;83;28301;-77
2022/12/30 03:48:29;;;;;;;21.97;13.72;;;;;;;6.38;82.25;100233.98;1697514;83;25814;-77
2022/12/30 03:50:55;;;;;;;22.58;14.10;;;;;;;6.41;82.30;100231.01;1699634;83;25807;-77
2022/12/30 03:53:22;;;;;;;20.15;12.73;;;;;;;6.41;82.20;100227.51;1696938;83;25891;-77
2022/12/30 03:55:48;;;;;;;23.77;13.85;;;;;;;6.40;82.24;100234.65;1715271;83;25781;-77
2022/12/30 03:58:14;;;;;;;21.20;12.90;;;;;;;6.40;82.20;100234.65;1688853;83;27470;-77
2022/12/30 04:00:40;;;;;;;19.30;12.47;;;;;;;6.37;82.19;100229.69;1708441;83;25743;-77
2022/12/30 04:03:07;;;;;;;22.90;12.78;;;;;;;6.37;82.25;100236.83;1712186;83;25784;-77
2022/12/30 04:05:34;;;;;;;22.48;13.48;;;;;;;6.33;82.33;100238.97;1713368;83;25919;-77
2022/12/30 04:08:01;;;;;;;21.23;13.80;;;;;;;6.32;82.39;100247.97;1703254;83;26298;-77
2022/12/30 04:10:27;;;;;;;24.50;14.10;;;;;;;6.32;82.47;100247.97;1708048;83;27483;-77
2022/12/30 04:12:53;;;;;;;22.30;13.93;;;;;;;6.31;82.56;100247.63;1713226;83;25999;-78
2022/12/30 04:15:20;;;;;;;20.90;12.85;;;;;;;6.31;82.59;100246.81;1705198;83;25876;-77
2022/12/30 04:17:46;;;;;;;22.62;13.43;;;;;;;6.29;82.62;100249.63;1709687;83;25874;-77
2022/12/30 04:20:12;;;;;;;20.37;13.62;;;;;;;6.27;82.67;100248.96;1710961;83;26497;-77
2022/12/30 04:22:38;;;;;;;22.40;12.90;;;;;;;6.28;82.83;100249.80;1706126;83;27555;-76
2022/12/30 04:25:05;;;;;;;24.35;13.40;;;;;;;6.29;82.77;100248.81;1714336;83;25833;-77
2022/12/30 04:27:32;;;;;;;19.45;11.88;;;;;;;6.26;82.81;100257.11;1711558;82;26011;-77
2022/12/30 04:29:58;;;;;;;19.50;11.45;;;;;;;6.22;82.87;100251.31;1718415;82;26558;-77
2022/12/30 04:32:24;;;;;;;22.45;13.50;;;;;;;6.21;82.99;100255.80;1718658;83;25941;-77
2022/12/30 04:34:51;;;;;;;20.45;12.35;;;;;;;6.22;83.05;100251.31;1720314;82;27533;-77
2022/12/30 04:37:17;;;;;;;25.05;13.55;;;;;;;6.20;83.11;100251.45;1667502;85;25947;-77
2022/12/30 04:39:43;;;;;;;18.75;12.90;;;;;;;6.21;83.24;100256.28;1663872;85;25861;-77
2022/12/30 04:42:10;;;;;;;20.70;13.28;;;;;;;6.22;83.34;100252.64;1691452;84;25928;-77
2022/12/30 04:44:36;;;;;;;21.45;14.20;;;;;;;6.24;83.36;100255.96;1718586;82;25909;-76
2022/12/30 04:47:02;;;;;;;19.30;12.75;;;;;;;6.24;83.42;100263.42;1709579;82;27475;-77
2022/12/30 04:49:28;;;;;;;23.77;14.15;;;;;;;6.24;83.47;100262.09;1711042;83;25903;-77
2022/12/30 04:51:55;;;;;;;20.27;12.25;;;;;;;6.27;83.60;100256.94;1718209;82;25783;-77
2022/12/30 04:54:21;;;;;;;20.17;11.97;;;;;;;6.30;83.63;100266.42;1712369;83;25805;-77
2022/12/30 04:56:49;;;;;;;21.23;12.98;;;;;;;6.30;83.71;100270.41;1665528;85;25874;-77
2022/12/30 04:59:15;;;;;;;21.52;12.45;;;;;;;6.32;83.79;100257.77;1665410;85;27468;-77
2022/12/30 05:01:42;;;;;;;17.00;11.88;;;;;;;6.35;83.84;100259.58;1686948;83;25786;-77
2022/12/30 05:04:08;;;;;;;20.95;11.78;;;;;;;6.38;83.80;100256.60;1721253;83;26070;-77
2022/12/30 05:06:34;;;;;;;20.70;12.13;;;;;;;6.41;83.82;100252.78;1719054;82;26278;-77
2022/12/30 05:09:01;;;;;;;20.75;12.10;;;;;;;6.43;83.85;100264.08;1716325;82;26452;-77
2022/12/30 05:11:27;;;;;;;21.27;12.23;;;;;;;6.44;83.79;100263.06;1721759;83;27436;-77
2022/12/30 05:13:53;;;;;;;32.17;15.08;;;;;;;6.46;83.86;100263.76;1720941;82;25890;-77
2022/12/30 05:16:19;;;;;;;20.60;13.03;;;;;;;6.49;83.87;100267.39;1692912;82;26495;-77
2022/12/30 05:18:46;;;;;;;20.10;12.05;;;;;;;6.50;83.84;100263.22;1708052;83;26549;-76
2022/12/30 05:21:12;;;;;;;22.20;12.25;;;;;;;6.52;83.82;100267.07;1683644;84;25313;-77
2022/12/30 05:26:23;;;;;;;17.50;11.45;;;;;;;6.54;83.89;100281.03;1717844;82;25737;-77
2022/12/30 05:28:50;;;;;;;20.95;11.45;;;;;;;6.54;83.89;100281.03;1714040;82;25833;-77
2022/12/30 05:31:18;;;;;;;19.65;12.63;;;;;;;6.54;83.90;100290.34;1714281;82;25867;-77
2022/12/30 05:33:46;;;;;;;17.73;10.98;;;;;;;6.54;83.98;100291.19;1714352;82;25276;-77
2022/12/30 05:36:14;;;;;;;18.77;11.53;;;;;;;6.56;84.02;100298.99;1714558;82;27459;-77
2022/12/30 05:38:40;;;;;;;20.40;12.33;;;;;;;6.56;84.03;100301.66;1710766;82;26082;-77
2022/12/30 05:41:09;;;;;;;18.10;11.08;;;;;;;6.57;84.09;100301.47;1720213;82;25853;-77
2022/12/30 05:43:36;;;;;;;20.70;11.68;;;;;;;6.60;84.10;100310.47;1714386;82;25768;-77
2022/12/30 05:46:03;;;;;;;20.85;12.55;;;;;;;6.61;84.14;100309.45;1714612;82;25752;-77
2022/12/30 05:48:29;;;;;;;17.50;10.53;;;;;;;6.62;84.15;100307.13;1717274;82;27519;-77
2022/12/30 05:50:56;;;;;;;18.73;11.12;;;;;;;6.64;84.21;100309.62;1714881;82;25837;-76
2022/12/30 05:53:22;;;;;;;16.87;10.53;;;;;;;6.67;84.25;100315.95;1714775;82;26607;-76
2022/12/30 05:55:48;;;;;;;20.60;11.25;;;;;;;6.67;84.23;100318.09;1715315;82;26642;-77
2022/12/30 05:58:15;;;;;;;19.32;11.80;;;;;;;6.67;84.25;100319.41;1714198;82;26460;-77
2022/12/30 06:00:41;;;;;;;16.82;10.88;;;;;;;6.69;84.33;100319.27;1714363;82;27435;-76
2022/12/30 06:03:08;;;;;;;19.87;10.98;;;;;;;6.71;84.32;100315.94;1714009;82;25744;-77
2022/12/30 06:05:35;;;;;;;20.80;12.28;;;;;;;6.73;84.34;100320.10;1714444;82;25858;-76
2022/12/30 06:08:02;;;;;;;17.50;10.88;;;;;;;6.74;84.31;100324.41;1714427;82;26540;-77
2022/12/30 06:10:28;;;;;;;15.75;11.55;;;;;;;6.75;84.34;100322.58;1714937;82;25986;-77
2022/12/30 06:12:54;;;;;;;23.92;12.37;;;;;;;6.75;84.35;100320.76;1714648;82;27636;-77
2022/12/30 06:15:21;;;;;;;19.27;12.03;;;;;;;6.76;84.35;100327.73;1713899;82;26105;-77
2022/12/30 06:17:47;;;;;;;19.48;11.45;;;;;;;6.75;84.39;100343.88;1714262;82;25826;-77
2022/12/30 06:20:13;;;;;;;19.57;11.15;;;;;;;6.75;84.47;100334.07;1714947;82;25951;-77
2022/12/30 06:22:40;;;;;;;18.90;11.75;;;;;;;6.75;84.48;100340.72;1710779;82;25736;-77
2022/12/30 06:25:07;;;;;;;18.98;11.33;;;;;;;6.77;84.61;100348.53;1714416;82;27406;-77
2022/12/30 06:27:33;;;;;;;18.67;11.30;;;;;;;6.77;84.64;100356.52;1712200;82;26497;-77
2022/12/30 06:30:00;;;;;;;18.10;11.25;;;;;;;6.78;84.74;100355.50;1676903;84;25754;-77
2022/12/30 06:32:26;;;;;;;18.27;10.88;;;;;;;6.79;84.78;100357.18;1683076;84;25775;-77
2022/12/30 06:34:52;;;;;;;22.35;11.33;;;;;;;6.79;84.82;100347.86;1707597;82;26173;-77
2022/12/30 06:37:18;;;;;;;23.90;11.90;;;;;;;6.79;84.84;100350.03;1699312;82;28705;-77
2022/12/30 06:39:45;;;;;;;18.30;10.43;;;;;;;6.81;84.91;100353.84;1712303;82;25616;-77
2022/12/30 06:42:11;;;;;;;17.75;10.90;;;;;;;6.82;84.95;100364.31;1702999;82;25756;-77
2022/12/30 06:44:37;;;;;;;22.00;11.40;;;;;;;6.82;85.00;100362.98;1701258;82;26553;-76
2022/12/30 06:47:03;;;;;;;16.75;10.50;;;;;;;6.85;85.02;100372.47;1708159;82;25877;-77
2022/12/30 06:49:30;;;;;;;20.02;10.98;;;;;;;6.85;85.10;100364.48;1704757;82;27436;-77
2022/12/30 06:51:56;;;;;;;18.57;10.58;;;;;;;6.86;85.13;100372.82;1714602;82;25821;-77
2022/12/30 06:54:22;;;;;;;20.05;12.43;;;;;;;6.87;85.21;100387.28;1675858;83;25887;-77
2022/12/30 06:56:49;;;;;;;16.52;10.05;;;;;;;6.88;85.26;100398.77;1702296;82;26472;-77
2022/12/30 06:59:15;;;;;;;18.75;11.22;;;;;;;6.90;85.29;100400.77;1700532;82;26550;-77
2022/12/30 07:01:42;;;;;;;15.95;10.48;;;;;;;6.91;85.30;100399.26;1710217;82;28261;-78
2022/12/30 07:04:08;;;;;;;18.55;10.75;;;;;;;6.93;85.33;100409.73;1702948;83;25990;-77
2022/12/30 07:06:34;;;;;;;14.93;10.05;;;;;;;6.93;85.38;100422.55;1704408;83;25843;-77
2022/12/30 07:09:01;;;;;;;14.18;9.53;;;;;;;6.95;85.43;100417.05;1704604;83;25785;-77
2022/12/30 07:11:27;;;;;;;22.20;11.05;;;;;;;6.96;85.49;100421.39;1704093;82;26508;-77
2022/12/30 07:13:53;;;;;;;16.87;10.45;;;;;;;7.00;85.53;100430.70;1702517;82;27492;-77
2022/12/30 07:16:20;;;;;;;17.25;9.73;;;;;;;7.03;85.59;100426.87;1678171;83;25508;-77
2022/12/30 07:18:46;;;;;;;18.40;10.23;;;;;;;7.03;85.65;100420.53;1704509;82;25711;-77
2022/12/30 07:21:12;;;;;;;14.78;9.20;;;;;;;7.06;85.70;100430.02;1698410;82;26566;-77
2022/12/30 07:23:38;;;;;;;17.27;9.10;;;;;;;7.09;85.75;100435.52;1703192;82;26529;-76
2022/12/30 07:26:05;;;;;;;15.72;9.90;;;;;;;7.11;85.79;100444.17;1699473;82;27456;-77
2022/12/30 07:28:31;;;;;;;14.65;8.70;;;;;;;7.14;85.84;100439.86;1700318;82;25798;-77
2022/12/30 07:30:57;;;;;;;15.15;9.15;;;;;;;7.16;85.88;100456.50;1731712;82;26454;-77
2022/12/30 07:33:24;;;;;;;15.68;9.25;;;;;;;7.18;85.96;100451.83;1731733;82;26160;-77
2022/12/30 07:35:50;;;;;;;16.10;8.90;;;;;;;7.20;85.93;100448.00;1704722;83;25741;-77
2022/12/30 07:38:16;;;;;;;13.98;8.83;;;;;;;7.23;85.98;100452.98;1696983;83;27879;-77
2022/12/30 07:40:42;;;;;;;17.37;8.70;;;;;;;7.27;86.00;100456.16;1701970;84;26540;-77
2022/12/30 07:43:09;;;;;;;13.65;7.92;;;;;;;7.29;86.02;100462.95;1701955;83;26492;-77
2022/12/30 07:45:36;;;;;;;18.02;8.68;;;;;;;7.33;86.06;100467.47;1703909;83;26138;-77
2022/12/30 07:48:03;;;;;;;13.10;7.83;;;;;;;7.36;86.09;100473.77;1698799;83;25966;-77
2022/12/30 07:50:29;;;;;;;14.58;8.05;;;;;;;7.39;86.09;100477.44;1733649;81;27470;-77
2022/12/30 07:52:56;;;;;;;12.43;7.92;;;;;;;7.42;86.13;100481.92;1728162;82;25775;-77
2022/12/30 07:55:22;;;;;;;14.47;8.05;;;;;;;7.46;86.16;100486.44;1722726;82;26474;-77
2022/12/30 07:57:48;;;;;;;9.60;6.42;;;;;;;7.48;86.21;100482.60;1712654;83;26049;-77
2022/12/30 08:00:16;;;;;;;14.45;7.80;;;;;;;7.54;86.40;100489.08;1717601;83;26429;-77
2022/12/30 08:02:42;;;;;;;11.68;6.80;;;;;;;7.60;86.23;100497.72;1705455;83;27534;-77
2022/12/30 08:05:09;;;;;;;13.35;7.10;;;;;;;7.62;86.22;100489.89;1692275;84;26494;-77
2022/12/30 08:07:36;;;;;;;13.40;6.58;;;;;;;7.68;86.14;100491.02;1734204;81;25959;-77
2022/12/30 08:10:03;;;;;;;14.28;7.03;;;;;;;7.71;86.12;100492.88;1724290;82;26968;-77
2022/12/30 08:12:30;;;;;;;11.60;6.65;;;;;;;7.75;85.96;100498.19;1729864;82;25726;-77
2022/12/30 08:14:57;;;;;;;11.15;7.00;;;;;;;7.78;85.87;100509.83;1682640;83;46523;-77
2022/12/30 08:17:23;;;;;;;12.85;8.15;;;;;;;7.82;85.89;100508.16;1723485;82;25737;-77
2022/12/30 08:19:49;;;;;;;11.78;7.37;;;;;;;7.83;85.76;100513.31;1712357;83;25314;-79
2022/12/30 08:22:15;;;;;;;11.90;7.58;;;;;;;7.85;85.54;100517.17;1732553;81;25841;-81
2022/12/30 08:24:44;;;;;;;19.32;11.78;;;;;;;7.87;85.41;100517.83;1733488;81;25804;-79
2022/12/30 08:27:10;;;;;;;28.20;17.02;;;;;;;7.87;85.20;100519.97;1714782;82;27445;-87
2022/12/30 08:29:36;;;;;;;21.23;14.47;;;;;;;7.88;85.20;100526.98;1695994;84;25835;-86
2022/12/30 08:32:05;;;;;;;16.45;11.50;;;;;;;7.88;85.15;100526.14;1700711;83;25847;-87
2022/12/30 08:34:31;;;;;;;13.15;8.53;;;;;;;7.88;85.11;100525.65;1701192;83;25769;-87
2022/12/30 08:36:57;;;;;;;12.07;7.17;;;;;;;7.88;85.03;100526.98;1696159;83;26459;-85
2022/12/30 08:39:25;;;;;;;11.20;6.00;;;;;;;7.90;85.05;100526.80;1697285;83;28380;-87
2022/12/30 08:42:03;;;;;;;11.50;5.67;;;;;;;7.91;85.10;100525.31;1690557;83;25320;-89
2022/12/30 08:44:29;;;;;;;11.18;6.03;;;;;;;7.95;85.15;100527.97;1629795;83;25935;-86
2022/12/30 08:46:55;;;;;;;13.03;6.22;;;;;;;7.98;84.94;100538.27;1675080;85;26515;-77
2022/12/30 08:49:22;;;;;;;8.58;5.30;;;;;;;8.00;84.83;100533.59;1668158;85;26318;-77
2022/12/30 08:51:49;;;;;;;11.20;5.15;;;;;;;8.04;84.75;100539.45;1644678;85;28608;-78
2022/12/30 08:54:16;;;;;;;10.45;5.90;;;;;;;8.07;84.82;100553.75;1666180;84;25779;-77
2022/12/30 08:56:45;;;;;;;10.70;5.90;;;;;;;8.09;84.59;100560.59;1672677;85;25797;-77
2022/12/30 08:59:11;;;;;;;15.70;8.33;;;;;;;8.10;84.48;100564.09;1675920;84;26588;-77
2022/12/30 09:01:40;;;;;;;11.10;5.47;;;;;;;8.12;84.33;100586.09;1696324;84;25877;-77
2022/12/30 09:04:08;;;;;;;10.98;6.35;;;;;;;8.12;84.15;100560.26;1673548;84;27465;-77
2022/12/30 09:06:38;;;;;;;9.68;5.55;;;;;;;8.11;83.97;100583.92;1671333;84;26169;-77
2022/12/30 09:09:07;;;;;;;9.68;5.55;;;;;;;8.09;83.82;100583.76;1691982;83;25803;-77
2022/12/30 09:11:37;;;;;;;12.37;5.42;;;;;;;8.08;83.73;100590.95;1669008;85;25859;-78
2022/12/30 09:14:06;;;;;;;10.15;4.78;;;;;;;8.07;83.72;100589.77;1668346;85;25996;-77
2022/12/30 09:16:33;;;;;;;10.98;5.70;;;;;;;8.06;83.77;100590.78;1668165;85;28405;-77
2022/12/30 09:19:00;;;;;;;9.68;4.17;;;;;;;8.06;83.78;100580.92;1661710;85;26638;-77
2022/12/30 09:21:27;;;;;;;10.25;4.78;;;;;;;8.09;83.72;100586.42;1673029;85;25795;-77
2022/12/30 09:23:54;;;;;;;15.78;8.28;;;;;;;8.12;83.77;100594.09;1672839;85;26462;-77
2022/12/30 09:26:23;;;;;;;11.75;7.70;;;;;;;8.15;83.76;100601.25;1669975;85;26121;-77
2022/12/30 09:28:50;;;;;;;11.30;5.72;;;;;;;8.19;83.67;100589.75;1671757;83;27619;-77
2022/12/30 09:31:17;;;;;;;14.10;5.53;;;;;;;8.21;83.79;100589.89;1694951;83;25913;-77
2022/12/30 09:33:44;;;;;;;45.30;20.85;;;;;;;8.25;83.78;100593.06;1666833;84;26548;-77
2022/12/30 09:36:28;;;;;;;20.12;12.60;;;;;;;8.27;83.91;100594.59;1705432;82;25836;-77
2022/12/30 09:38:55;;;;;;;14.60;7.47;;;;;;;8.31;83.78;100597.73;1705749;83;25847;-77
2022/12/30 09:44:54;;;;;;;13.20;7.58;;;;;;;8.36;83.92;100604.21;1679956;83;26423;-77
2022/12/30 09:47:34;;;;;;;14.28;9.03;;;;;;;8.38;83.79;100596.05;1708257;82;25776;-77
2022/12/30 09:50:30;;;;;;;12.55;7.20;;;;;;;8.40;83.86;100600.19;1657932;84;25806;-77
2022/12/30 09:53:08;;;;;;;11.05;5.40;;;;;;;8.42;83.46;100590.70;1696095;82;25932;-77
2022/12/30 09:55:40;;;;;;;11.97;6.28;;;;;;;8.42;83.31;100589.36;1680591;83;27912;-77
2022/12/30 09:58:11;;;;;;;8.78;5.87;;;;;;;8.42;83.31;100595.55;1692823;83;26412;-77
2022/12/30 10:00:37;;;;;;;8.80;5.12;;;;;;;8.43;83.05;100585.17;1692583;83;25290;-77
2022/12/30 10:03:15;;;;;;;13.05;5.75;;;;;;;8.44;83.01;100589.52;1705314;83;26505;-77
2022/12/30 10:05:53;;;;;;;12.13;4.92;;;;;;;8.47;82.92;100597.17;1659418;85;25852;-77
2022/12/30 10:08:42;;;;;;;10.03;4.60;;;;;;;8.50;82.90;100601.34;1703755;82;27692;-77
2022/12/30 10:11:29;;;;;;;9.58;4.65;;;;;;;8.52;82.54;100604.17;1699972;83;26457;-77
2022/12/30 10:14:21;;;;;;;9.95;5.15;;;;;;;8.53;82.41;100610.34;1682576;84;26458;-77
2022/12/30 10:17:15;;;;;;;11.53;4.70;;;;;;;8.53;82.52;100605.81;1687892;84;25855;-77
2022/12/30 10:20:04;;;;;;;14.93;6.20;;;;;;;8.56;82.19;100608.64;1683014;84;25741;-77
2022/12/30 10:22:41;;;;;;;21.12;7.72;;;;;;;8.57;81.89;100606.32;1701176;82;28307;-77
2022/12/30 10:25:39;;;;;;;13.80;7.58;;;;;;;8.59;81.77;100610.14;1702938;83;25985;-77
2022/12/30 10:28:08;;;;;;;11.70;5.12;;;;;;;8.58;81.36;100610.64;1720333;82;25986;-77
2022/12/30 10:30:39;;;;;;;12.65;6.25;;;;;;;8.59;80.67;100607.47;1734662;80;25912;-77
2022/12/30 10:33:08;;;;;;;;;;;;;;;8.60;81.02;100607.81;1734758;81;25722;-77
2022/12/30 10:35:37;;;;;;;9.20;5.67;;;;;;;8.62;80.47;100611.14;1728511;82;27451;-77
2022/12/30 10:38:17;;;;;;;13.22;5.95;;;;;;;8.61;80.61;100614.80;1738831;82;26529;-77
2022/12/30 10:41:07;;;;;;;9.38;4.85;;;;;;;8.63;80.67;100620.30;1729308;82;25242;-77
2022/12/30 10:43:42;;;;;;;12.70;5.63;;;;;;;8.64;80.06;100623.81;1667942;82;25791;-77
2022/12/30 10:46:39;;;;;;;10.80;5.17;;;;;;;8.62;79.99;100619.96;1708217;83;25975;-77
2022/12/30 10:49:27;;;;;;;9.63;4.17;;;;;;;8.62;79.62;100617.29;1709632;83;27465;-77
2022/12/30 10:51:54;;;;;;;13.85;5.05;;;;;;;8.64;79.20;100625.15;1716772;83;25733;-77
2022/12/30 10:54:20;;;;;;;9.10;4.50;;;;;;;8.65;79.04;100619.63;1707202;83;25791;-77
2022/12/30 10:56:48;;;;;;;15.03;5.65;;;;;;;8.65;78.95;100614.78;1713219;83;26426;-77
2022/12/30 10:59:19;;;;;;;13.75;4.70;;;;;;;8.65;78.83;100620.13;1700824;84;25578;-77
2022/12/30 11:01:47;;;;;;;11.73;7.30;;;;;;;8.65;78.69;100624.13;1716298;83;27453;-77
2022/12/30 11:04:35;;;;;;;16.55;5.92;;;;;;;8.67;79.07;100636.30;1746396;80;25881;-77
2022/12/30 11:07:06;;;;;;;15.25;5.58;;;;;;;8.69;78.85;100636.96;1739585;80;25275;-77
2022/12/30 11:09:32;;;;;;;10.32;4.97;;;;;;;8.68;78.48;100639.81;1740503;82;25957;-77
2022/12/30 11:15:05;;;;;;;16.37;6.12;;;;;;;8.69;78.98;100642.80;1706223;83;27451;-77
2022/12/30 11:17:43;;;;;;;8.38;4.42;;;;;;;8.67;78.87;100649.66;1720482;83;25552;-77
2022/12/30 11:20:18;;;;;;;10.55;5.33;;;;;;;8.68;78.93;100646.48;1713056;82;25904;-77
2022/12/30 11:22:51;;;;;;;11.75;5.25;;;;;;;8.70;79.01;100648.48;1729183;81;25765;-76
2022/12/30 11:25:36;;;;;;;13.60;5.75;;;;;;;8.71;78.93;100658.14;1706269;82;26499;-77
2022/12/30 11:28:07;;;;;;;10.72;4.28;;;;;;;8.74;79.19;100661.81;1757113;80;27461;-77
2022/12/30 11:30:56;;;;;;;16.70;5.72;;;;;;;8.74;78.71;100665.82;1749632;80;25815;-77
2022/12/30 11:33:36;;;;;;;17.10;6.33;;;;;;;8.76;78.84;100665.14;1735614;80;25752;-77
2022/12/30 11:36:24;;;;;;;15.00;6.40;;;;;;;8.75;78.51;100661.63;1740891;81;26415;-77
2022/12/30 11:38:51;;;;;;;15.80;7.22;;;;;;;8.75;78.09;100662.97;1747026;81;26408;-77
2022/12/30 11:41:25;;;;;;;16.07;6.92;;;;;;;8.76;77.99;100659.80;1734524;81;27509;-77
2022/12/30 11:44:04;;;;;;;14.23;5.33;;;;;;;8.75;78.28;100665.64;1734633;81;25776;-77
2022/12/30 11:46:44;;;;;;;13.48;5.95;;;;;;;8.77;77.78;100663.63;1719709;83;26489;-77
2022/12/30 11:49:34;;;;;;;12.73;5.80;;;;;;;8.80;78.07;100671.80;1691999;83;32982;-77
2022/12/30 11:52:25;;;;;;;19.45;6.42;;;;;;;8.81;78.06;100671.61;1741324;81;25866;-77
2022/12/30 11:54:58;;;;;;;10.53;4.55;;;;;;;8.81;77.98;100666.27;1714834;83;27469;-77
2022/12/30 11:57:31;;;;;;;8.98;4.35;;;;;;;8.83;77.78;100666.12;1730494;81;26270;-77
2022/12/30 12:00:19;;;;;;;17.35;7.55;;;;;;;8.84;77.81;100661.09;1714519;81;25849;-76
2022/12/30 12:02:52;;;;;;;18.23;7.22;;;;;;;8.84;77.80;100667.77;1716421;81;25901;-77
2022/12/30 12:05:32;;;;;;;22.52;9.93;;;;;;;8.86;77.94;100675.11;1737359;81;26695;-76
2022/12/30 12:08:24;;;;;;;20.72;10.70;;;;;;;8.86;77.68;100674.61;1740384;80;27470;-77
2022/12/30 12:11:01;;;;;;;12.60;4.92;;;;;;;8.88;77.74;100674.42;1706291;82;25833;-77
2022/12/30 12:14:06;;;;;;;10.00;3.37;;;;;;;8.88;77.53;100673.09;1727380;82;25823;-76
2022/12/30 12:16:59;;;;;;;10.48;3.75;;;;;;;8.89;77.62;100676.11;1728455;82;26712;-77
2022/12/30 12:19:52;;;;;;;18.87;4.40;;;;;;;8.90;77.86;100677.26;1715184;82;25724;-76
2022/12/30 12:23:03;;;;;;;12.80;3.40;;;;;;;8.94;77.93;100687.11;1710694;83;27550;-76
2022/12/30 12:25:43;;;;;;;8.90;4.33;;;;;;;8.95;77.87;100688.27;1716127;83;26505;-76
2022/12/30 12:28:13;;;;;;;10.98;3.37;;;;;;;8.94;77.34;100681.25;1697046;82;25885;-76
2022/12/30 12:31:15;;;;;;;16.80;4.33;;;;;;;8.95;77.53;100683.42;1717550;83;25807;-76
2022/12/30 12:34:30;;;;;;;10.35;5.12;;;;;;;8.95;77.28;100680.75;1738235;80;26442;-76
2022/12/30 12:37:17;;;;;;;10.38;3.60;;;;;;;8.96;77.69;100677.89;1744543;81;27453;-77
2022/12/30 12:39:52;;;;;;;12.15;3.85;;;;;;;8.97;77.60;100680.91;1728058;82;26015;-77
2022/12/30 12:42:27;;;;;;;27.35;10.82;;;;;;;8.97;77.84;100684.91;1706066;83;25803;-77